PWSweather.com
Personal Weather Stations
Station Observations
INORDPAS37
Bondues, BonduesFR 59910

BonduesBonduesFR 59910

Lat: 50.7, Lon: 3.09

Elevation: 102

Station Type: Netatmo

http://bondues.meteoamikuze.com

High Low Average
Temperature 68.9°F20.5°C 59.4°F15.2°C 62.9°F17.2°C
Dew Point 57.2°F14.0°C 48.2°F9.0°C 51.5°F10.8°C
Winds 3.1 mph 5.0 kmh 0.7 mph 1.1 kmh 2.0 mph W3.2 kmh W
Wind Gusts 9.8 mph15.8 kmh 1.3 mph2.1 kmh 4.0 mph6.4 kmh
Humidity 73% 69% 71%
Pressure 30.14 in1020.7 mb 30.02 in1016.6 mb -
Precipitation 0.07 in1.8 mm - -
Hour Temp Dew Point Humidity Winds Wind Gusts Pressure Precip Precip Rate Daily Precip Total
12:15 AM 62.6°F17.0°C 49.8°F9.9°C 68% 1.3 mph W2.1 kmh W 3.1 mph5.0 kmh 30.02 in1016.6 mb 0.00 in0.0 mm 0.00 in0.0 mm 0.00 in0.0 mm
12:21 AM 62.2°F16.8°C 49.8°F9.9°C 69% 1.3 mph WNW2.1 kmh WNW 3.1 mph5.0 kmh 30.03 in1016.9 mb 0.00 in0.0 mm 0.00 in0.0 mm 0.00 in0.0 mm
12:41 AM 61.9°F16.6°C 49.6°F9.8°C 69% 1.8 mph W2.9 kmh W 4.3 mph6.9 kmh 30.02 in1016.6 mb 0.00 in0.0 mm 0.00 in0.0 mm 0.00 in0.0 mm
01:01 AM 61.5°F16.4°C 49.3°F9.6°C 69% 0.7 mph S1.1 kmh S 1.8 mph2.9 kmh 30.03 in1016.9 mb 0.00 in0.0 mm 0.00 in0.0 mm 0.00 in0.0 mm
01:22 AM 61.2°F16.2°C 49.3°F9.6°C 70% 0.7 mph SW1.1 kmh SW 1.8 mph2.9 kmh 30.03 in1016.9 mb 0.00 in0.0 mm 0.00 in0.0 mm 0.00 in0.0 mm
01:41 AM 60.8°F16.0°C 48.9°F9.4°C 70% 1.3 mph WSW2.1 kmh WSW 3.8 mph6.1 kmh 30.02 in1016.6 mb 0.00 in0.0 mm 0.00 in0.0 mm 0.00 in0.0 mm
02:02 AM 60.6°F15.9°C 48.7°F9.3°C 70% 1.8 mph SW2.9 kmh SW 3.1 mph5.0 kmh 30.02 in1016.6 mb 0.00 in0.0 mm 0.00 in0.0 mm 0.00 in0.0 mm
02:22 AM 60.4°F15.8°C 48.6°F9.2°C 70% 1.3 mph SW2.1 kmh SW 3.1 mph5.0 kmh 30.02 in1016.6 mb 0.00 in0.0 mm 0.00 in0.0 mm 0.00 in0.0 mm
02:42 AM 60.1°F15.6°C 48.2°F9.0°C 70% 0.7 mph W1.1 kmh W 1.3 mph2.1 kmh 30.02 in1016.6 mb 0.00 in0.0 mm 0.00 in0.0 mm 0.00 in0.0 mm
03:02 AM 60.1°F15.6°C 48.2°F9.0°C 70% 0.7 mph WSW1.1 kmh WSW 1.8 mph2.9 kmh 30.03 in1016.9 mb 0.00 in0.0 mm 0.00 in0.0 mm 0.00 in0.0 mm
03:22 AM 59.9°F15.5°C 48.4°F9.1°C 71% 1.3 mph SW2.1 kmh SW 3.1 mph5.0 kmh 30.03 in1016.9 mb 0.00 in0.0 mm 0.00 in0.0 mm 0.00 in0.0 mm
03:43 AM 60.1°F15.6°C 48.6°F9.2°C 71% 1.3 mph SW2.1 kmh SW 1.8 mph2.9 kmh 30.03 in1016.9 mb 0.00 in0.0 mm 0.00 in0.0 mm 0.00 in0.0 mm
04:03 AM 60.1°F15.6°C 48.6°F9.2°C 71% 1.3 mph WSW2.1 kmh WSW 3.1 mph5.0 kmh 30.03 in1016.9 mb 0.00 in0.0 mm 0.00 in0.0 mm 0.00 in0.0 mm
04:23 AM 60.1°F15.6°C 48.6°F9.2°C 71% 1.3 mph W2.1 kmh W 3.1 mph5.0 kmh 30.03 in1016.9 mb 0.00 in0.0 mm 0.00 in0.0 mm 0.00 in0.0 mm
04:43 AM 60.3°F15.7°C 48.7°F9.3°C 71% 1.3 mph W2.1 kmh W 4.3 mph6.9 kmh 30.03 in1016.9 mb 0.00 in0.0 mm 0.00 in0.0 mm 0.00 in0.0 mm
05:03 AM 60.3°F15.7°C 48.7°F9.3°C 71% 1.3 mph W2.1 kmh W 3.1 mph5.0 kmh 30.04 in1017.3 mb 0.00 in0.0 mm 0.00 in0.0 mm 0.00 in0.0 mm
05:23 AM 60.3°F15.7°C 48.7°F9.3°C 71% 0.7 mph W1.1 kmh W 3.1 mph5.0 kmh 30.04 in1017.3 mb 0.00 in0.0 mm 0.00 in0.0 mm 0.00 in0.0 mm
05:44 AM 60.4°F15.8°C 48.9°F9.4°C 71% 1.3 mph W2.1 kmh W 3.1 mph5.0 kmh 30.04 in1017.3 mb 0.00 in0.0 mm 0.00 in0.0 mm 0.00 in0.0 mm
06:04 AM 60.3°F15.7°C 48.7°F9.3°C 71% 1.3 mph W2.1 kmh W 3.1 mph5.0 kmh 30.05 in1017.6 mb 0.00 in0.0 mm 0.00 in0.0 mm 0.00 in0.0 mm
06:24 AM 60.3°F15.7°C 49.3°F9.6°C 72% 1.8 mph W2.9 kmh W 3.8 mph6.1 kmh 30.06 in1017.9 mb 0.00 in0.0 mm 0.00 in0.0 mm 0.00 in0.0 mm
06:45 AM 60.3°F15.7°C 49.3°F9.6°C 72% 1.3 mph W2.1 kmh W 2.5 mph4.0 kmh 30.06 in1017.9 mb 0.00 in0.0 mm 0.00 in0.0 mm 0.00 in0.0 mm
07:04 AM 60.4°F15.8°C 49.5°F9.7°C 72% 1.3 mph WNW2.1 kmh WNW 3.1 mph5.0 kmh 30.06 in1017.9 mb 0.00 in0.0 mm 0.00 in0.0 mm 0.00 in0.0 mm
07:25 AM 60.6°F15.9°C 49.6°F9.8°C 72% 1.3 mph WNW2.1 kmh WNW 3.8 mph6.1 kmh 30.06 in1017.9 mb 0.00 in0.0 mm 0.00 in0.0 mm 0.00 in0.0 mm
07:44 AM 60.4°F15.8°C 49.5°F9.7°C 72% 1.3 mph W2.1 kmh W 2.5 mph4.0 kmh 30.06 in1017.9 mb 0.00 in0.0 mm 0.00 in0.0 mm 0.00 in0.0 mm
08:05 AM 60.4°F15.8°C 49.5°F9.7°C 72% 1.3 mph WNW2.1 kmh WNW 3.1 mph5.0 kmh 30.07 in1018.3 mb 0.00 in0.0 mm 0.00 in0.0 mm 0.00 in0.0 mm
08:25 AM 60.8°F16.0°C 49.8°F9.9°C 72% 1.3 mph W2.1 kmh W 3.8 mph6.1 kmh 30.07 in1018.3 mb 0.00 in0.0 mm 0.00 in0.0 mm 0.00 in0.0 mm
08:45 AM 61.2°F16.2°C 50.5°F10.3°C 73% 1.8 mph W2.9 kmh W 4.9 mph7.9 kmh 30.07 in1018.3 mb 0.00 in0.0 mm 0.00 in0.0 mm 0.00 in0.0 mm
09:06 AM 61.9°F16.6°C 51.3°F10.7°C 73% 1.8 mph W2.9 kmh W 3.8 mph6.1 kmh 30.07 in1018.3 mb 0.00 in0.0 mm 0.00 in0.0 mm 0.00 in0.0 mm
09:25 AM 63.0°F17.2°C 51.8°F11.0°C 72% 1.3 mph WNW2.1 kmh WNW 3.8 mph6.1 kmh 30.07 in1018.3 mb 0.00 in0.0 mm 0.00 in0.0 mm 0.00 in0.0 mm
09:55 AM 63.7°F17.6°C 52.5°F11.4°C 72% 1.3 mph W2.1 kmh W 3.1 mph5.0 kmh 30.08 in1018.6 mb 0.00 in0.0 mm 0.00 in0.0 mm 0.00 in0.0 mm
10:01 AM 64.8°F18.2°C 53.6°F12.0°C 72% 1.3 mph W2.1 kmh W 3.1 mph5.0 kmh 30.08 in1018.6 mb 0.00 in0.0 mm 0.00 in0.0 mm 0.00 in0.0 mm
10:21 AM 65.3°F18.5°C 54.1°F12.3°C 72% 1.8 mph W2.9 kmh W 4.9 mph7.9 kmh 30.08 in1018.6 mb 0.00 in0.0 mm 0.00 in0.0 mm 0.00 in0.0 mm
10:41 AM 65.7°F18.7°C 54.0°F12.2°C 71% 2.5 mph W4.0 kmh W 5.6 mph9.0 kmh 30.08 in1018.6 mb 0.00 in0.0 mm 0.00 in0.0 mm 0.00 in0.0 mm
11:02 AM 66.0°F18.9°C 54.3°F12.4°C 71% 1.8 mph W2.9 kmh W 3.8 mph6.1 kmh 30.09 in1019.0 mb 0.00 in0.0 mm 0.00 in0.0 mm 0.00 in0.0 mm
11:21 AM 66.6°F19.2°C 54.9°F12.7°C 71% 1.3 mph WSW2.1 kmh WSW 2.5 mph4.0 kmh 30.09 in1019.0 mb 0.00 in0.0 mm 0.00 in0.0 mm 0.00 in0.0 mm
11:42 AM 66.7°F19.3°C 55.0°F12.8°C 71% 1.3 mph W2.1 kmh W 3.8 mph6.1 kmh 30.10 in1019.3 mb 0.00 in0.0 mm 0.00 in0.0 mm 0.00 in0.0 mm
12:02 PM 66.9°F19.4°C 55.2°F12.9°C 71% 1.3 mph NW2.1 kmh NW 3.1 mph5.0 kmh 30.11 in1019.6 mb 0.00 in0.0 mm 0.00 in0.0 mm 0.00 in0.0 mm
12:22 PM 67.5°F19.7°C 55.8°F13.2°C 71% 1.8 mph NNW2.9 kmh NNW 3.8 mph6.1 kmh 30.10 in1019.3 mb 0.00 in0.0 mm 0.00 in0.0 mm 0.00 in0.0 mm
12:43 PM 68.2°F20.1°C 56.5°F13.6°C 71% 1.3 mph NW2.1 kmh NW 3.8 mph6.1 kmh 30.10 in1019.3 mb 0.00 in0.0 mm 0.01 in0.3 mm 0.00 in0.0 mm
01:02 PM 68.9°F20.5°C 57.2°F14.0°C 71% 1.3 mph NW2.1 kmh NW 4.9 mph7.9 kmh 30.10 in1019.3 mb 0.00 in0.0 mm 0.00 in0.0 mm 0.00 in0.0 mm
01:23 PM 68.9°F20.5°C 57.2°F14.0°C 71% 0.7 mph NW1.1 kmh NW 2.5 mph4.0 kmh 30.10 in1019.3 mb 0.00 in0.0 mm 0.00 in0.0 mm 0.00 in0.0 mm
01:43 PM 68.5°F20.3°C 56.8°F13.8°C 71% 1.3 mph NW2.1 kmh NW 4.3 mph6.9 kmh 30.10 in1019.3 mb 0.00 in0.0 mm 0.00 in0.0 mm 0.01 in0.3 mm
02:03 PM 68.0°F20.0°C 56.3°F13.5°C 71% 1.3 mph WNW2.1 kmh WNW 3.1 mph5.0 kmh 30.09 in1019.0 mb 0.00 in0.0 mm 0.00 in0.0 mm 0.01 in0.3 mm
02:23 PM 67.5°F19.7°C 55.8°F13.2°C 71% 1.3 mph W2.1 kmh W 3.1 mph5.0 kmh 30.10 in1019.3 mb 0.00 in0.0 mm 0.00 in0.0 mm 0.01 in0.3 mm
02:44 PM 67.1°F19.5°C 55.4°F13.0°C 71% 0.7 mph W1.1 kmh W 2.5 mph4.0 kmh 30.10 in1019.3 mb 0.00 in0.0 mm 0.00 in0.0 mm 0.01 in0.3 mm
03:15 PM 66.9°F19.4°C 55.2°F12.9°C 71% 0.7 mph W1.1 kmh W 1.3 mph2.1 kmh 30.11 in1019.6 mb 0.01 in0.3 mm 0.02 in0.5 mm 0.02 in0.5 mm
03:29 PM 66.0°F18.9°C 54.3°F12.4°C 71% 2.5 mph W4.0 kmh W 4.9 mph7.9 kmh 30.10 in1019.3 mb 0.04 in1.0 mm 0.10 in2.5 mm 0.04 in1.0 mm
03:55 PM 65.8°F18.8°C 54.1°F12.3°C 71% 2.5 mph W4.0 kmh W 5.6 mph9.0 kmh 30.10 in1019.3 mb 0.04 in1.0 mm 0.01 in0.3 mm 0.06 in1.5 mm
04:15 PM 65.3°F18.5°C 53.6°F12.0°C 71% 1.8 mph W2.9 kmh W 4.3 mph6.9 kmh 30.10 in1019.3 mb 0.04 in1.0 mm 0.01 in0.3 mm 0.07 in1.8 mm
04:35 PM 65.1°F18.4°C 53.4°F11.9°C 71% 1.3 mph W2.1 kmh W 3.1 mph5.0 kmh 30.10 in1019.3 mb 0.03 in0.8 mm 0.00 in0.0 mm 0.07 in1.8 mm
04:55 PM 65.7°F18.7°C 54.5°F12.5°C 72% 1.8 mph W2.9 kmh W 5.6 mph9.0 kmh 30.10 in1019.3 mb 0.01 in0.3 mm 0.00 in0.0 mm 0.07 in1.8 mm
05:15 PM 65.3°F18.5°C 54.1°F12.3°C 72% 3.1 mph W5.0 kmh W 8.7 mph14.0 kmh 30.10 in1019.3 mb 0.00 in0.0 mm 0.00 in0.0 mm 0.07 in1.8 mm
05:35 PM 65.3°F18.5°C 54.1°F12.3°C 72% 3.1 mph W5.0 kmh W 6.9 mph11.1 kmh 30.10 in1019.3 mb 0.00 in0.0 mm 0.00 in0.0 mm 0.07 in1.8 mm
05:55 PM 64.9°F18.3°C 53.8°F12.1°C 72% 3.1 mph W5.0 kmh W 8.7 mph14.0 kmh 30.10 in1019.3 mb 0.00 in0.0 mm 0.00 in0.0 mm 0.07 in1.8 mm
06:15 PM 64.4°F18.0°C 53.2°F11.8°C 72% 3.1 mph W5.0 kmh W 7.4 mph11.9 kmh 30.09 in1019.0 mb 0.00 in0.0 mm 0.00 in0.0 mm 0.07 in1.8 mm
06:35 PM 63.9°F17.7°C 52.3°F11.3°C 71% 2.5 mph W4.0 kmh W 7.4 mph11.9 kmh 30.10 in1019.3 mb 0.00 in0.0 mm 0.00 in0.0 mm 0.07 in1.8 mm
06:41 PM 63.5°F17.5°C 52.0°F11.1°C 71% 2.5 mph W4.0 kmh W 5.6 mph9.0 kmh 30.10 in1019.3 mb 0.00 in0.0 mm 0.00 in0.0 mm 0.07 in1.8 mm
07:15 PM 63.1°F17.3°C 51.6°F10.9°C 71% 2.5 mph WSW4.0 kmh WSW 5.6 mph9.0 kmh 30.11 in1019.6 mb 0.00 in0.0 mm 0.00 in0.0 mm 0.07 in1.8 mm
07:21 PM 62.8°F17.1°C 51.3°F10.7°C 71% 2.5 mph W4.0 kmh W 4.9 mph7.9 kmh 30.11 in1019.6 mb 0.00 in0.0 mm 0.00 in0.0 mm 0.07 in1.8 mm
07:41 PM 62.4°F16.9°C 50.9°F10.5°C 71% 2.5 mph W4.0 kmh W 9.8 mph15.8 kmh 30.11 in1019.6 mb 0.00 in0.0 mm 0.00 in0.0 mm 0.07 in1.8 mm
08:01 PM 62.1°F16.7°C 50.5°F10.3°C 71% 2.5 mph W4.0 kmh W 4.9 mph7.9 kmh 30.11 in1019.6 mb 0.00 in0.0 mm 0.00 in0.0 mm 0.07 in1.8 mm
08:21 PM 61.7°F16.5°C 50.2°F10.1°C 71% 2.5 mph W4.0 kmh W 6.9 mph11.1 kmh 30.12 in1020.0 mb 0.00 in0.0 mm 0.00 in0.0 mm 0.07 in1.8 mm
08:42 PM 61.5°F16.4°C 50.0°F10.0°C 71% 1.8 mph W2.9 kmh W 4.9 mph7.9 kmh 30.13 in1020.3 mb 0.00 in0.0 mm 0.00 in0.0 mm 0.07 in1.8 mm
09:02 PM 61.2°F16.2°C 49.6°F9.8°C 71% 2.5 mph W4.0 kmh W 4.3 mph6.9 kmh 30.14 in1020.7 mb 0.00 in0.0 mm 0.00 in0.0 mm 0.07 in1.8 mm
09:22 PM 61.0°F16.1°C 49.5°F9.7°C 71% 1.8 mph W2.9 kmh W 4.9 mph7.9 kmh 30.14 in1020.7 mb 0.00 in0.0 mm 0.00 in0.0 mm 0.07 in1.8 mm
09:43 PM 60.6°F15.9°C 49.1°F9.5°C 71% 1.8 mph WSW2.9 kmh WSW 5.6 mph9.0 kmh 30.14 in1020.7 mb 0.00 in0.0 mm 0.00 in0.0 mm 0.07 in1.8 mm
10:02 PM 60.3°F15.7°C 48.7°F9.3°C 71% 1.3 mph WSW2.1 kmh WSW 4.9 mph7.9 kmh 30.14 in1020.7 mb 0.00 in0.0 mm 0.00 in0.0 mm 0.07 in1.8 mm
10:23 PM 59.9°F15.5°C 48.4°F9.1°C 71% 1.8 mph W2.9 kmh W 4.9 mph7.9 kmh 30.14 in1020.7 mb 0.00 in0.0 mm 0.00 in0.0 mm 0.07 in1.8 mm
10:43 PM 59.7°F15.4°C 48.4°F9.1°C 71% 2.5 mph WSW4.0 kmh WSW 4.9 mph7.9 kmh 30.14 in1020.7 mb 0.00 in0.0 mm 0.00 in0.0 mm 0.07 in1.8 mm
11:03 PM 59.5°F15.3°C 48.2°F9.0°C 71% 1.8 mph W2.9 kmh W 4.3 mph6.9 kmh 30.14 in1020.7 mb 0.00 in0.0 mm 0.00 in0.0 mm 0.04 in1.0 mm
11:23 PM 59.4°F15.2°C 48.4°F9.1°C 72% 1.8 mph WSW2.9 kmh WSW 4.3 mph6.9 kmh 30.14 in1020.7 mb 0.00 in0.0 mm 0.00 in0.0 mm 0.04 in1.0 mm
11:43 PM 59.4°F15.2°C 48.4°F9.1°C 72% 2.5 mph WSW4.0 kmh WSW 4.3 mph6.9 kmh 30.13 in1020.3 mb 0.00 in0.0 mm 0.00 in0.0 mm 0.04 in1.0 mm